Addison, Vermont
Current Conditions -  °F | °C
As of 2:55 AM on Thursday 23 Oct 2014 (Local Time) from K6B0 Reporting Station
Overcast Overcast  
Wind Chill:   Ceiling: 2000
Heat Index:   Visibility: 10mi
Dew Point:   Wind: 10mph
Humidity: 81%   Direction: 340°NNW
Pressure: 29.96"   Gusts: 16mph
Location:  44.0804°N, 73.3324°W
Report Text: K6B0 230655Z AUTO 34009G14KT 10SM OVC020 08/05 A2996 RMK AO2 T00760045
Loading
Personal Weather Stations






























Interactive Weather Map
Tropical Storm Tracking
New forecast layout! Learn more

10-Day Weather Forecast

Advertisements
Track Severe Weather on mobile